sensor_id;sensor_type;location;lat;lon;timestamp;P1;durP1;ratioP1;P2;durP2;ratioP2
37087;SDS011;23002;52.676;6.432;2023-07-24T00:01:25;9.13;;;4.20;;
37087;SDS011;23002;52.676;6.432;2023-07-24T00:03:52;7.82;;;3.88;;
37087;SDS011;23002;52.676;6.432;2023-07-24T00:06:21;8.75;;;3.97;;
37087;SDS011;23002;52.676;6.432;2023-07-24T00:08:48;7.13;;;4.53;;
37087;SDS011;23002;52.676;6.432;2023-07-24T00:11:15;7.38;;;4.53;;
37087;SDS011;23002;52.676;6.432;2023-07-24T00:13:42;6.38;;;3.72;;
37087;SDS011;23002;52.676;6.432;2023-07-24T00:16:09;9.32;;;5.20;;
37087;SDS011;23002;52.676;6.432;2023-07-24T00:18:37;8.32;;;4.68;;
37087;SDS011;23002;52.676;6.432;2023-07-24T00:21:04;7.25;;;4.57;;
37087;SDS011;23002;52.676;6.432;2023-07-24T00:23:31;9.30;;;3.72;;
37087;SDS011;23002;52.676;6.432;2023-07-24T00:25:58;8.40;;;4.22;;
37087;SDS011;23002;52.676;6.432;2023-07-24T00:28:26;8.68;;;4.50;;
37087;SDS011;23002;52.676;6.432;2023-07-24T00:30:53;7.88;;;4.10;;
37087;SDS011;23002;52.676;6.432;2023-07-24T00:33:22;6.53;;;3.50;;
37087;SDS011;23002;52.676;6.432;2023-07-24T00:35:49;8.13;;;4.40;;
37087;SDS011;23002;52.676;6.432;2023-07-24T00:38:16;4.97;;;3.25;;
37087;SDS011;23002;52.676;6.432;2023-07-24T00:40:43;6.18;;;3.67;;
37087;SDS011;23002;52.676;6.432;2023-07-24T00:43:11;7.85;;;4.03;;
37087;SDS011;23002;52.676;6.432;2023-07-24T00:45:38;8.00;;;3.58;;
37087;SDS011;23002;52.676;6.432;2023-07-24T00:48:05;8.25;;;4.20;;
37087;SDS011;23002;52.676;6.432;2023-07-24T00:50:33;7.47;;;3.85;;
37087;SDS011;23002;52.676;6.432;2023-07-24T00:53:00;6.95;;;3.78;;
37087;SDS011;23002;52.676;6.432;2023-07-24T00:55:27;4.93;;;2.70;;
37087;SDS011;23002;52.676;6.432;2023-07-24T00:57:55;7.00;;;3.75;;
37087;SDS011;23002;52.676;6.432;2023-07-24T01:00:22;4.90;;;3.17;;
37087;SDS011;23002;52.676;6.432;2023-07-24T01:02:50;6.60;;;3.83;;
37087;SDS011;23002;52.676;6.432;2023-07-24T01:05:17;5.53;;;3.25;;
37087;SDS011;23002;52.676;6.432;2023-07-24T01:07:45;7.28;;;3.33;;
37087;SDS011;23002;52.676;6.432;2023-07-24T01:10:12;6.85;;;3.20;;
37087;SDS011;23002;52.676;6.432;2023-07-24T01:12:45;6.22;;;3.53;;
37087;SDS011;23002;52.676;6.432;2023-07-24T01:15:26;10.43;;;3.30;;
37087;SDS011;23002;52.676;6.432;2023-07-24T01:17:59;5.10;;;2.47;;
37087;SDS011;23002;52.676;6.432;2023-07-24T01:20:28;5.13;;;3.00;;
37087;SDS011;23002;52.676;6.432;2023-07-24T01:25:33;5.68;;;3.33;;
37087;SDS011;23002;52.676;6.432;2023-07-24T01:28:06;5.53;;;2.97;;
37087;SDS011;23002;52.676;6.432;2023-07-24T01:30:33;5.03;;;2.83;;
37087;SDS011;23002;52.676;6.432;2023-07-24T01:33:01;6.03;;;3.47;;
37087;SDS011;23002;52.676;6.432;2023-07-24T01:35:28;5.35;;;3.17;;
37087;SDS011;23002;52.676;6.432;2023-07-24T01:37:57;4.85;;;2.67;;
37087;SDS011;23002;52.676;6.432;2023-07-24T01:40:24;6.70;;;3.17;;
37087;SDS011;23002;52.676;6.432;2023-07-24T01:42:52;4.05;;;2.22;;
37087;SDS011;23002;52.676;6.432;2023-07-24T01:45:20;4.05;;;2.53;;
37087;SDS011;23002;52.676;6.432;2023-07-24T01:47:47;5.32;;;2.45;;
37087;SDS011;23002;52.676;6.432;2023-07-24T01:50:14;6.68;;;3.40;;
37087;SDS011;23002;52.676;6.432;2023-07-24T01:52:41;6.75;;;3.03;;
37087;SDS011;23002;52.676;6.432;2023-07-24T01:55:10;5.18;;;3.05;;
37087;SDS011;23002;52.676;6.432;2023-07-24T01:57:37;5.43;;;2.58;;
37087;SDS011;23002;52.676;6.432;2023-07-24T02:00:05;5.63;;;2.50;;
37087;SDS011;23002;52.676;6.432;2023-07-24T02:02:32;5.50;;;3.70;;
37087;SDS011;23002;52.676;6.432;2023-07-24T02:04:59;5.15;;;2.65;;
37087;SDS011;23002;52.676;6.432;2023-07-24T02:07:27;5.43;;;3.03;;
37087;SDS011;23002;52.676;6.432;2023-07-24T02:09:54;10.02;;;3.00;;
37087;SDS011;23002;52.676;6.432;2023-07-24T02:12:21;5.30;;;2.60;;
37087;SDS011;23002;52.676;6.432;2023-07-24T02:14:48;6.15;;;2.92;;
37087;SDS011;23002;52.676;6.432;2023-07-24T02:17:17;7.15;;;3.47;;
37087;SDS011;23002;52.676;6.432;2023-07-24T02:19:45;5.93;;;3.05;;
37087;SDS011;23002;52.676;6.432;2023-07-24T02:22:12;6.32;;;3.10;;
37087;SDS011;23002;52.676;6.432;2023-07-24T02:24:39;5.75;;;3.42;;
37087;SDS011;23002;52.676;6.432;2023-07-24T02:27:06;5.65;;;3.17;;
37087;SDS011;23002;52.676;6.432;2023-07-24T02:29:34;7.18;;;3.10;;
37087;SDS011;23002;52.676;6.432;2023-07-24T02:32:02;8.10;;;3.67;;
37087;SDS011;23002;52.676;6.432;2023-07-24T02:34:29;8.07;;;3.15;;
37087;SDS011;23002;52.676;6.432;2023-07-24T02:36:56;7.15;;;3.30;;
37087;SDS011;23002;52.676;6.432;2023-07-24T02:39:23;8.07;;;3.45;;
37087;SDS011;23002;52.676;6.432;2023-07-24T02:41:51;8.80;;;4.60;;
37087;SDS011;23002;52.676;6.432;2023-07-24T02:44:18;6.60;;;3.38;;
37087;SDS011;23002;52.676;6.432;2023-07-24T02:46:45;6.22;;;2.92;;
37087;SDS011;23002;52.676;6.432;2023-07-24T02:49:12;6.05;;;3.13;;
37087;SDS011;23002;52.676;6.432;2023-07-24T02:51:40;6.18;;;3.05;;
37087;SDS011;23002;52.676;6.432;2023-07-24T02:54:07;8.13;;;3.70;;
37087;SDS011;23002;52.676;6.432;2023-07-24T02:56:34;6.38;;;3.17;;
37087;SDS011;23002;52.676;6.432;2023-07-24T02:59:02;6.82;;;3.42;;
37087;SDS011;23002;52.676;6.432;2023-07-24T03:01:29;4.97;;;2.60;;
37087;SDS011;23002;52.676;6.432;2023-07-24T03:03:56;7.22;;;3.20;;
37087;SDS011;23002;52.676;6.432;2023-07-24T03:06:25;6.72;;;3.58;;
37087;SDS011;23002;52.676;6.432;2023-07-24T03:08:52;7.32;;;3.75;;
37087;SDS011;23002;52.676;6.432;2023-07-24T03:11:19;6.95;;;3.38;;
37087;SDS011;23002;52.676;6.432;2023-07-24T03:13:46;8.15;;;3.10;;
37087;SDS011;23002;52.676;6.432;2023-07-24T03:16:14;7.65;;;3.45;;
37087;SDS011;23002;52.676;6.432;2023-07-24T03:18:44;7.60;;;3.40;;
37087;SDS011;23002;52.676;6.432;2023-07-24T03:21:12;6.03;;;3.60;;
37087;SDS011;23002;52.676;6.432;2023-07-24T03:23:39;6.47;;;3.60;;
37087;SDS011;23002;52.676;6.432;2023-07-24T03:26:06;8.65;;;3.47;;
37087;SDS011;23002;52.676;6.432;2023-07-24T03:28:33;6.35;;;3.47;;
37087;SDS011;23002;52.676;6.432;2023-07-24T03:31:04;6.32;;;3.55;;
37087;SDS011;23002;52.676;6.432;2023-07-24T03:33:32;7.00;;;4.05;;
37087;SDS011;23002;52.676;6.432;2023-07-24T03:35:59;6.93;;;3.42;;
37087;SDS011;23002;52.676;6.432;2023-07-24T03:38:26;6.45;;;3.70;;
37087;SDS011;23002;52.676;6.432;2023-07-24T03:40:53;7.60;;;3.85;;
37087;SDS011;23002;52.676;6.432;2023-07-24T03:43:20;7.13;;;3.72;;
37087;SDS011;23002;52.676;6.432;2023-07-24T03:45:47;7.50;;;3.50;;
37087;SDS011;23002;52.676;6.432;2023-07-24T03:48:15;8.23;;;4.32;;
37087;SDS011;23002;52.676;6.432;2023-07-24T03:50:42;7.95;;;4.00;;
37087;SDS011;23002;52.676;6.432;2023-07-24T03:53:09;7.18;;;3.22;;
37087;SDS011;23002;52.676;6.432;2023-07-24T03:55:36;7.50;;;4.40;;
37087;SDS011;23002;52.676;6.432;2023-07-24T03:58:04;8.45;;;4.18;;
37087;SDS011;23002;52.676;6.432;2023-07-24T04:00:31;8.55;;;4.88;;
37087;SDS011;23002;52.676;6.432;2023-07-24T04:02:58;8.15;;;4.10;;
37087;SDS011;23002;52.676;6.432;2023-07-24T04:05:25;7.20;;;4.15;;
37087;SDS011;23002;52.676;6.432;2023-07-24T04:07:53;7.63;;;4.47;;
37087;SDS011;23002;52.676;6.432;2023-07-24T04:10:20;9.13;;;4.20;;
37087;SDS011;23002;52.676;6.432;2023-07-24T04:12:48;5.78;;;3.50;;
37087;SDS011;23002;52.676;6.432;2023-07-24T04:15:15;6.65;;;3.72;;
37087;SDS011;23002;52.676;6.432;2023-07-24T04:17:42;7.10;;;3.50;;
37087;SDS011;23002;52.676;6.432;2023-07-24T04:20:10;5.75;;;2.95;;
37087;SDS011;23002;52.676;6.432;2023-07-24T04:22:37;7.00;;;3.72;;
37087;SDS011;23002;52.676;6.432;2023-07-24T04:25:04;6.45;;;3.22;;
37087;SDS011;23002;52.676;6.432;2023-07-24T04:27:31;7.53;;;4.32;;
37087;SDS011;23002;52.676;6.432;2023-07-24T04:29:59;7.75;;;4.07;;
37087;SDS011;23002;52.676;6.432;2023-07-24T04:32:26;6.57;;;3.75;;
37087;SDS011;23002;52.676;6.432;2023-07-24T04:34:54;5.60;;;3.53;;
37087;SDS011;23002;52.676;6.432;2023-07-24T04:37:21;6.40;;;3.47;;
37087;SDS011;23002;52.676;6.432;2023-07-24T04:39:48;8.48;;;4.43;;
37087;SDS011;23002;52.676;6.432;2023-07-24T04:42:15;7.97;;;4.15;;
37087;SDS011;23002;52.676;6.432;2023-07-24T04:44:42;6.90;;;3.67;;
37087;SDS011;23002;52.676;6.432;2023-07-24T04:47:09;7.07;;;3.47;;
37087;SDS011;23002;52.676;6.432;2023-07-24T04:49:37;7.10;;;3.30;;
37087;SDS011;23002;52.676;6.432;2023-07-24T04:52:04;6.55;;;3.55;;
37087;SDS011;23002;52.676;6.432;2023-07-24T04:54:31;7.53;;;3.55;;
37087;SDS011;23002;52.676;6.432;2023-07-24T04:56:58;6.32;;;3.00;;
37087;SDS011;23002;52.676;6.432;2023-07-24T04:59:26;8.95;;;3.70;;
37087;SDS011;23002;52.676;6.432;2023-07-24T05:01:53;8.95;;;4.00;;
37087;SDS011;23002;52.676;6.432;2023-07-24T05:04:20;6.72;;;3.60;;
37087;SDS011;23002;52.676;6.432;2023-07-24T05:06:47;5.22;;;3.03;;
37087;SDS011;23002;52.676;6.432;2023-07-24T05:09:14;7.07;;;3.70;;
37087;SDS011;23002;52.676;6.432;2023-07-24T05:11:42;6.82;;;4.00;;
37087;SDS011;23002;52.676;6.432;2023-07-24T05:14:10;6.30;;;3.50;;
37087;SDS011;23002;52.676;6.432;2023-07-24T05:16:38;5.43;;;3.17;;
37087;SDS011;23002;52.676;6.432;2023-07-24T05:19:05;6.18;;;3.63;;
37087;SDS011;23002;52.676;6.432;2023-07-24T05:21:32;7.07;;;3.80;;
37087;SDS011;23002;52.676;6.432;2023-07-24T05:23:59;6.22;;;3.47;;
37087;SDS011;23002;52.676;6.432;2023-07-24T05:26:26;6.85;;;3.50;;
37087;SDS011;23002;52.676;6.432;2023-07-24T05:28:54;6.32;;;3.55;;
37087;SDS011;23002;52.676;6.432;2023-07-24T05:31:21;7.30;;;2.90;;
37087;SDS011;23002;52.676;6.432;2023-07-24T05:33:48;6.40;;;3.63;;
37087;SDS011;23002;52.676;6.432;2023-07-24T05:36:15;6.32;;;3.70;;
37087;SDS011;23002;52.676;6.432;2023-07-24T05:38:43;7.20;;;3.75;;
37087;SDS011;23002;52.676;6.432;2023-07-24T05:41:10;4.82;;;2.85;;
37087;SDS011;23002;52.676;6.432;2023-07-24T05:43:37;5.43;;;2.83;;
37087;SDS011;23002;52.676;6.432;2023-07-24T05:46:04;6.68;;;2.78;;
37087;SDS011;23002;52.676;6.432;2023-07-24T05:48:31;5.75;;;3.40;;
37087;SDS011;23002;52.676;6.432;2023-07-24T05:50:58;5.50;;;3.53;;
37087;SDS011;23002;52.676;6.432;2023-07-24T05:53:26;6.15;;;2.85;;
37087;SDS011;23002;52.676;6.432;2023-07-24T05:55:57;6.18;;;3.58;;
37087;SDS011;23002;52.676;6.432;2023-07-24T05:58:25;7.55;;;4.13;;
37087;SDS011;23002;52.676;6.432;2023-07-24T06:00:52;6.22;;;2.97;;
37087;SDS011;23002;52.676;6.432;2023-07-24T06:03:21;5.20;;;2.97;;
37087;SDS011;23002;52.676;6.432;2023-07-24T06:05:54;7.00;;;3.20;;
37087;SDS011;23002;52.676;6.432;2023-07-24T06:08:22;6.10;;;3.28;;
37087;SDS011;23002;52.676;6.432;2023-07-24T06:10:49;6.70;;;3.50;;
37087;SDS011;23002;52.676;6.432;2023-07-24T06:13:17;5.53;;;3.15;;
37087;SDS011;23002;52.676;6.432;2023-07-24T06:15:44;6.55;;;3.72;;
37087;SDS011;23002;52.676;6.432;2023-07-24T06:18:11;6.78;;;3.78;;
37087;SDS011;23002;52.676;6.432;2023-07-24T06:20:38;6.55;;;3.97;;
37087;SDS011;23002;52.676;6.432;2023-07-24T06:23:05;5.75;;;2.72;;
37087;SDS011;23002;52.676;6.432;2023-07-24T06:25:33;6.13;;;3.53;;
37087;SDS011;23002;52.676;6.432;2023-07-24T06:28:00;5.85;;;3.00;;
37087;SDS011;23002;52.676;6.432;2023-07-24T06:30:27;5.32;;;2.47;;
37087;SDS011;23002;52.676;6.432;2023-07-24T06:32:55;5.75;;;2.38;;
37087;SDS011;23002;52.676;6.432;2023-07-24T06:35:22;4.68;;;2.80;;
37087;SDS011;23002;52.676;6.432;2023-07-24T06:37:49;4.18;;;2.55;;
37087;SDS011;23002;52.676;6.432;2023-07-24T06:40:16;3.85;;;2.42;;
37087;SDS011;23002;52.676;6.432;2023-07-24T06:42:43;5.75;;;3.10;;
37087;SDS011;23002;52.676;6.432;2023-07-24T06:45:11;6.30;;;2.58;;
37087;SDS011;23002;52.676;6.432;2023-07-24T06:47:38;6.35;;;3.25;;
37087;SDS011;23002;52.676;6.432;2023-07-24T06:50:05;4.05;;;2.78;;
37087;SDS011;23002;52.676;6.432;2023-07-24T06:52:33;7.03;;;2.92;;
37087;SDS011;23002;52.676;6.432;2023-07-24T06:55:00;3.33;;;2.17;;
37087;SDS011;23002;52.676;6.432;2023-07-24T06:57:28;4.85;;;2.65;;
37087;SDS011;23002;52.676;6.432;2023-07-24T06:59:55;4.07;;;2.47;;
37087;SDS011;23002;52.676;6.432;2023-07-24T07:02:22;3.78;;;2.17;;
37087;SDS011;23002;52.676;6.432;2023-07-24T07:04:49;5.57;;;2.50;;
37087;SDS011;23002;52.676;6.432;2023-07-24T07:07:16;4.75;;;2.42;;
37087;SDS011;23002;52.676;6.432;2023-07-24T07:09:44;5.32;;;3.10;;
37087;SDS011;23002;52.676;6.432;2023-07-24T07:12:11;5.85;;;2.50;;
37087;SDS011;23002;52.676;6.432;2023-07-24T07:14:38;5.20;;;1.90;;
37087;SDS011;23002;52.676;6.432;2023-07-24T07:17:05;4.07;;;2.22;;
37087;SDS011;23002;52.676;6.432;2023-07-24T07:19:32;5.15;;;2.67;;
37087;SDS011;23002;52.676;6.432;2023-07-24T07:22:00;3.97;;;2.22;;
37087;SDS011;23002;52.676;6.432;2023-07-24T07:24:27;5.18;;;2.70;;
37087;SDS011;23002;52.676;6.432;2023-07-24T07:26:54;5.13;;;2.42;;
37087;SDS011;23002;52.676;6.432;2023-07-24T07:29:21;4.20;;;2.38;;
37087;SDS011;23002;52.676;6.432;2023-07-24T07:31:48;4.03;;;2.45;;
37087;SDS011;23002;52.676;6.432;2023-07-24T07:34:15;5.32;;;2.42;;
37087;SDS011;23002;52.676;6.432;2023-07-24T07:36:43;6.13;;;2.55;;
37087;SDS011;23002;52.676;6.432;2023-07-24T07:39:10;4.82;;;2.03;;
37087;SDS011;23002;52.676;6.432;2023-07-24T07:41:40;6.10;;;2.60;;
37087;SDS011;23002;52.676;6.432;2023-07-24T07:44:08;5.20;;;2.35;;
37087;SDS011;23002;52.676;6.432;2023-07-24T07:46:35;4.18;;;2.67;;
37087;SDS011;23002;52.676;6.432;2023-07-24T07:49:02;4.40;;;2.50;;
37087;SDS011;23002;52.676;6.432;2023-07-24T07:51:29;6.70;;;2.60;;
37087;SDS011;23002;52.676;6.432;2023-07-24T07:53:56;5.97;;;2.53;;
37087;SDS011;23002;52.676;6.432;2023-07-24T07:56:23;3.95;;;2.10;;
37087;SDS011;23002;52.676;6.432;2023-07-24T07:58:51;5.57;;;2.25;;
37087;SDS011;23002;52.676;6.432;2023-07-24T08:01:18;3.20;;;1.80;;
37087;SDS011;23002;52.676;6.432;2023-07-24T08:03:45;6.57;;;2.92;;
37087;SDS011;23002;52.676;6.432;2023-07-24T08:06:12;5.47;;;2.30;;
37087;SDS011;23002;52.676;6.432;2023-07-24T08:08:39;4.13;;;2.28;;
37087;SDS011;23002;52.676;6.432;2023-07-24T08:11:06;4.88;;;2.78;;
37087;SDS011;23002;52.676;6.432;2023-07-24T08:13:34;5.32;;;2.85;;
37087;SDS011;23002;52.676;6.432;2023-07-24T08:16:01;4.95;;;2.50;;
37087;SDS011;23002;52.676;6.432;2023-07-24T08:18:30;4.03;;;2.28;;
37087;SDS011;23002;52.676;6.432;2023-07-24T08:20:57;4.45;;;2.25;;
37087;SDS011;23002;52.676;6.432;2023-07-24T08:23:24;5.50;;;2.33;;
37087;SDS011;23002;52.676;6.432;2023-07-24T08:25:52;5.18;;;2.40;;
37087;SDS011;23002;52.676;6.432;2023-07-24T08:28:19;5.47;;;2.10;;
37087;SDS011;23002;52.676;6.432;2023-07-24T08:30:55;4.70;;;2.50;;
37087;SDS011;23002;52.676;6.432;2023-07-24T08:33:23;3.65;;;1.85;;
37087;SDS011;23002;52.676;6.432;2023-07-24T08:36:00;3.65;;;2.00;;
37087;SDS011;23002;52.676;6.432;2023-07-24T08:38:28;4.65;;;2.33;;
37087;SDS011;23002;52.676;6.432;2023-07-24T08:41:08;4.95;;;1.80;;
37087;SDS011;23002;52.676;6.432;2023-07-24T08:43:38;4.35;;;2.15;;
37087;SDS011;23002;52.676;6.432;2023-07-24T08:46:06;5.25;;;2.60;;
37087;SDS011;23002;52.676;6.432;2023-07-24T08:48:35;4.15;;;1.98;;
37087;SDS011;23002;52.676;6.432;2023-07-24T08:51:03;2.88;;;1.92;;
37087;SDS011;23002;52.676;6.432;2023-07-24T08:53:32;5.57;;;1.80;;
37087;SDS011;23002;52.676;6.432;2023-07-24T08:58:28;4.60;;;1.98;;
37087;SDS011;23002;52.676;6.432;2023-07-24T09:00:56;3.38;;;1.70;;
37087;SDS011;23002;52.676;6.432;2023-07-24T09:03:24;4.72;;;2.03;;
37087;SDS011;23002;52.676;6.432;2023-07-24T09:05:51;3.97;;;2.10;;
37087;SDS011;23002;52.676;6.432;2023-07-24T09:08:28;3.58;;;2.13;;
37087;SDS011;23002;52.676;6.432;2023-07-24T09:10:56;4.03;;;2.05;;
37087;SDS011;23002;52.676;6.432;2023-07-24T09:13:24;5.90;;;2.00;;
37087;SDS011;23002;52.676;6.432;2023-07-24T09:15:51;5.22;;;2.60;;
37087;SDS011;23002;52.676;6.432;2023-07-24T09:18:18;4.22;;;1.60;;
37087;SDS011;23002;52.676;6.432;2023-07-24T09:20:45;5.13;;;2.22;;
37087;SDS011;23002;52.676;6.432;2023-07-24T09:23:14;5.95;;;2.17;;
37087;SDS011;23002;52.676;6.432;2023-07-24T09:25:45;6.57;;;2.28;;
37087;SDS011;23002;52.676;6.432;2023-07-24T09:28:13;3.58;;;1.77;;
37087;SDS011;23002;52.676;6.432;2023-07-24T09:30:41;4.05;;;2.40;;
37087;SDS011;23002;52.676;6.432;2023-07-24T09:33:10;3.60;;;2.08;;
37087;SDS011;23002;52.676;6.432;2023-07-24T09:35:37;7.88;;;2.42;;
37087;SDS011;23002;52.676;6.432;2023-07-24T09:38:05;6.57;;;2.47;;
37087;SDS011;23002;52.676;6.432;2023-07-24T09:40:41;4.45;;;2.33;;
37087;SDS011;23002;52.676;6.432;2023-07-24T09:43:24;6.30;;;2.75;;
37087;SDS011;23002;52.676;6.432;2023-07-24T09:46:05;6.05;;;2.05;;
37087;SDS011;23002;52.676;6.432;2023-07-24T09:48:37;4.72;;;2.28;;
37087;SDS011;23002;52.676;6.432;2023-07-24T09:51:08;3.80;;;2.10;;
37087;SDS011;23002;52.676;6.432;2023-07-24T09:53:43;3.67;;;1.92;;
37087;SDS011;23002;52.676;6.432;2023-07-24T09:56:10;4.32;;;2.22;;
37087;SDS011;23002;52.676;6.432;2023-07-24T09:58:38;6.10;;;2.22;;
37087;SDS011;23002;52.676;6.432;2023-07-24T10:01:07;3.47;;;2.25;;
37087;SDS011;23002;52.676;6.432;2023-07-24T10:03:35;6.15;;;2.47;;
37087;SDS011;23002;52.676;6.432;2023-07-24T10:06:05;4.72;;;1.92;;
37087;SDS011;23002;52.676;6.432;2023-07-24T10:08:33;4.13;;;2.17;;
37087;SDS011;23002;52.676;6.432;2023-07-24T10:11:01;5.03;;;2.80;;
37087;SDS011;23002;52.676;6.432;2023-07-24T10:13:28;3.72;;;2.00;;
37087;SDS011;23002;52.676;6.432;2023-07-24T10:15:56;4.45;;;1.73;;
37087;SDS011;23002;52.676;6.432;2023-07-24T10:18:27;3.33;;;1.98;;
37087;SDS011;23002;52.676;6.432;2023-07-24T10:23:29;2.70;;;1.90;;
37087;SDS011;23002;52.676;6.432;2023-07-24T10:26:01;3.72;;;1.70;;
37087;SDS011;23002;52.676;6.432;2023-07-24T10:28:30;3.42;;;1.30;;
37087;SDS011;23002;52.676;6.432;2023-07-24T10:30:58;3.42;;;1.52;;
37087;SDS011;23002;52.676;6.432;2023-07-24T10:33:29;2.30;;;1.30;;
37087;SDS011;23002;52.676;6.432;2023-07-24T10:36:04;3.17;;;1.58;;
37087;SDS011;23002;52.676;6.432;2023-07-24T10:38:35;4.20;;;1.52;;
37087;SDS011;23002;52.676;6.432;2023-07-24T10:41:05;3.20;;;1.85;;
37087;SDS011;23002;52.676;6.432;2023-07-24T10:43:52;3.38;;;1.70;;
37087;SDS011;23002;52.676;6.432;2023-07-24T10:46:20;4.32;;;1.20;;
37087;SDS011;23002;52.676;6.432;2023-07-24T10:48:50;3.30;;;1.23;;
37087;SDS011;23002;52.676;6.432;2023-07-24T10:53:46;3.33;;;1.50;;
37087;SDS011;23002;52.676;6.432;2023-07-24T10:56:13;3.08;;;1.40;;
37087;SDS011;23002;52.676;6.432;2023-07-24T10:58:41;2.30;;;1.30;;
37087;SDS011;23002;52.676;6.432;2023-07-24T11:01:08;2.90;;;1.55;;
37087;SDS011;23002;52.676;6.432;2023-07-24T11:03:38;3.30;;;1.50;;
37087;SDS011;23002;52.676;6.432;2023-07-24T11:06:14;2.00;;;1.15;;
37087;SDS011;23002;52.676;6.432;2023-07-24T11:08:41;2.92;;;1.40;;
37087;SDS011;23002;52.676;6.432;2023-07-24T11:11:09;3.90;;;1.70;;
37087;SDS011;23002;52.676;6.432;2023-07-24T11:13:38;3.30;;;1.88;;
37087;SDS011;23002;52.676;6.432;2023-07-24T11:16:06;5.70;;;1.73;;
37087;SDS011;23002;52.676;6.432;2023-07-24T11:18:43;3.83;;;1.73;;
37087;SDS011;23002;52.676;6.432;2023-07-24T11:21:20;4.97;;;2.13;;
37087;SDS011;23002;52.676;6.432;2023-07-24T11:23:51;4.22;;;1.33;;
37087;SDS011;23002;52.676;6.432;2023-07-24T11:26:19;4.75;;;1.50;;
37087;SDS011;23002;52.676;6.432;2023-07-24T11:28:48;3.72;;;1.35;;
37087;SDS011;23002;52.676;6.432;2023-07-24T11:31:15;2.75;;;1.52;;
37087;SDS011;23002;52.676;6.432;2023-07-24T11:33:46;2.20;;;1.35;;
37087;SDS011;23002;52.676;6.432;2023-07-24T11:36:13;2.42;;;1.50;;
37087;SDS011;23002;52.676;6.432;2023-07-24T11:38:41;5.15;;;1.70;;
37087;SDS011;23002;52.676;6.432;2023-07-24T11:41:08;3.70;;;1.85;;
37087;SDS011;23002;52.676;6.432;2023-07-24T11:43:36;3.70;;;1.70;;
37087;SDS011;23002;52.676;6.432;2023-07-24T11:46:11;3.67;;;2.03;;
37087;SDS011;23002;52.676;6.432;2023-07-24T11:48:48;3.53;;;1.65;;
37087;SDS011;23002;52.676;6.432;2023-07-24T11:51:19;5.03;;;1.73;;
37087;SDS011;23002;52.676;6.432;2023-07-24T11:53:47;4.05;;;1.85;;
37087;SDS011;23002;52.676;6.432;2023-07-24T11:56:14;2.95;;;1.73;;
37087;SDS011;23002;52.676;6.432;2023-07-24T11:58:42;2.53;;;1.60;;
37087;SDS011;23002;52.676;6.432;2023-07-24T12:01:10;4.18;;;2.22;;
37087;SDS011;23002;52.676;6.432;2023-07-24T12:03:39;4.80;;;2.17;;
37087;SDS011;23002;52.676;6.432;2023-07-24T12:06:14;4.60;;;1.50;;
37087;SDS011;23002;52.676;6.432;2023-07-24T12:08:42;3.65;;;1.55;;
37087;SDS011;23002;52.676;6.432;2023-07-24T12:11:16;3.15;;;1.65;;
37087;SDS011;23002;52.676;6.432;2023-07-24T12:13:46;5.00;;;1.73;;
37087;SDS011;23002;52.676;6.432;2023-07-24T12:16:16;5.40;;;1.93;;
37087;SDS011;23002;52.676;6.432;2023-07-24T12:18:44;2.78;;;1.50;;
37087;SDS011;23002;52.676;6.432;2023-07-24T12:21:11;3.53;;;1.67;;
37087;SDS011;23002;52.676;6.432;2023-07-24T12:23:38;2.42;;;1.50;;
37087;SDS011;23002;52.676;6.432;2023-07-24T12:26:06;1.77;;;1.17;;
37087;SDS011;23002;52.676;6.432;2023-07-24T12:28:33;1.98;;;1.10;;
37087;SDS011;23002;52.676;6.432;2023-07-24T12:31:00;5.05;;;1.55;;
37087;SDS011;23002;52.676;6.432;2023-07-24T12:33:28;2.83;;;1.48;;
37087;SDS011;23002;52.676;6.432;2023-07-24T12:35:55;4.05;;;2.10;;
37087;SDS011;23002;52.676;6.432;2023-07-24T12:38:23;3.95;;;1.48;;
37087;SDS011;23002;52.676;6.432;2023-07-24T12:40:50;4.18;;;1.60;;
37087;SDS011;23002;52.676;6.432;2023-07-24T12:43:17;3.08;;;1.50;;
37087;SDS011;23002;52.676;6.432;2023-07-24T12:45:44;3.53;;;1.73;;
37087;SDS011;23002;52.676;6.432;2023-07-24T12:48:11;3.03;;;1.38;;
37087;SDS011;23002;52.676;6.432;2023-07-24T12:50:39;4.53;;;1.85;;
37087;SDS011;23002;52.676;6.432;2023-07-24T12:53:06;3.33;;;1.80;;
37087;SDS011;23002;52.676;6.432;2023-07-24T12:55:37;5.13;;;1.80;;
37087;SDS011;23002;52.676;6.432;2023-07-24T12:58:04;3.30;;;1.70;;
37087;SDS011;23002;52.676;6.432;2023-07-24T13:00:32;6.05;;;1.65;;
37087;SDS011;23002;52.676;6.432;2023-07-24T13:02:59;1.90;;;1.20;;
37087;SDS011;23002;52.676;6.432;2023-07-24T13:05:26;3.58;;;1.52;;
37087;SDS011;23002;52.676;6.432;2023-07-24T13:07:54;4.40;;;1.50;;
37087;SDS011;23002;52.676;6.432;2023-07-24T13:10:21;4.10;;;1.63;;
37087;SDS011;23002;52.676;6.432;2023-07-24T13:12:48;3.72;;;1.38;;
37087;SDS011;23002;52.676;6.432;2023-07-24T13:15:15;3.10;;;1.70;;
37087;SDS011;23002;52.676;6.432;2023-07-24T13:17:42;3.83;;;1.92;;
37087;SDS011;23002;52.676;6.432;2023-07-24T13:20:10;6.25;;;1.95;;
37087;SDS011;23002;52.676;6.432;2023-07-24T13:22:37;10.02;;;2.10;;
37087;SDS011;23002;52.676;6.432;2023-07-24T13:25:04;4.85;;;2.42;;
37087;SDS011;23002;52.676;6.432;2023-07-24T13:27:32;6.47;;;3.47;;
37087;SDS011;23002;52.676;6.432;2023-07-24T13:30:00;6.25;;;3.33;;
37087;SDS011;23002;52.676;6.432;2023-07-24T13:32:27;5.65;;;2.78;;
37087;SDS011;23002;52.676;6.432;2023-07-24T13:34:56;7.93;;;3.25;;
37087;SDS011;23002;52.676;6.432;2023-07-24T13:37:23;8.23;;;3.25;;
37087;SDS011;23002;52.676;6.432;2023-07-24T13:39:51;5.88;;;2.92;;
37087;SDS011;23002;52.676;6.432;2023-07-24T13:42:18;8.80;;;3.17;;
37087;SDS011;23002;52.676;6.432;2023-07-24T13:44:45;5.20;;;2.92;;
37087;SDS011;23002;52.676;6.432;2023-07-24T13:47:12;4.57;;;2.90;;
37087;SDS011;23002;52.676;6.432;2023-07-24T13:49:39;4.65;;;2.95;;
37087;SDS011;23002;52.676;6.432;2023-07-24T13:52:06;5.50;;;2.40;;
37087;SDS011;23002;52.676;6.432;2023-07-24T13:54:34;5.90;;;3.30;;
37087;SDS011;23002;52.676;6.432;2023-07-24T13:57:01;6.00;;;3.40;;
37087;SDS011;23002;52.676;6.432;2023-07-24T13:59:28;6.57;;;3.17;;
37087;SDS011;23002;52.676;6.432;2023-07-24T14:01:55;4.57;;;2.50;;
37087;SDS011;23002;52.676;6.432;2023-07-24T14:04:22;6.75;;;3.67;;
37087;SDS011;23002;52.676;6.432;2023-07-24T14:06:50;5.43;;;2.97;;
37087;SDS011;23002;52.676;6.432;2023-07-24T14:09:17;7.25;;;3.67;;
37087;SDS011;23002;52.676;6.432;2023-07-24T14:11:44;6.70;;;3.20;;
37087;SDS011;23002;52.676;6.432;2023-07-24T14:14:11;5.53;;;2.90;;
37087;SDS011;23002;52.676;6.432;2023-07-24T14:16:38;5.40;;;3.15;;
37087;SDS011;23002;52.676;6.432;2023-07-24T14:19:08;5.03;;;2.67;;
37087;SDS011;23002;52.676;6.432;2023-07-24T14:21:35;5.15;;;3.20;;
37087;SDS011;23002;52.676;6.432;2023-07-24T14:24:02;5.72;;;3.20;;
37087;SDS011;23002;52.676;6.432;2023-07-24T14:26:30;6.03;;;2.65;;
37087;SDS011;23002;52.676;6.432;2023-07-24T14:28:57;4.70;;;2.63;;
37087;SDS011;23002;52.676;6.432;2023-07-24T14:31:24;6.10;;;2.78;;
37087;SDS011;23002;52.676;6.432;2023-07-24T14:33:52;6.35;;;3.03;;
37087;SDS011;23002;52.676;6.432;2023-07-24T14:36:19;6.25;;;2.80;;
37087;SDS011;23002;52.676;6.432;2023-07-24T14:38:46;5.53;;;2.78;;
37087;SDS011;23002;52.676;6.432;2023-07-24T14:41:13;4.88;;;2.08;;
37087;SDS011;23002;52.676;6.432;2023-07-24T14:43:42;4.88;;;2.03;;
37087;SDS011;23002;52.676;6.432;2023-07-24T14:46:09;3.20;;;1.60;;
37087;SDS011;23002;52.676;6.432;2023-07-24T14:48:36;2.72;;;1.35;;
37087;SDS011;23002;52.676;6.432;2023-07-24T14:51:03;1.30;;;0.80;;
37087;SDS011;23002;52.676;6.432;2023-07-24T14:53:30;1.27;;;0.80;;
37087;SDS011;23002;52.676;6.432;2023-07-24T14:55:58;1.23;;;0.70;;
37087;SDS011;23002;52.676;6.432;2023-07-24T14:58:25;1.85;;;0.95;;
37087;SDS011;23002;52.676;6.432;2023-07-24T15:00:52;1.33;;;0.70;;
37087;SDS011;23002;52.676;6.432;2023-07-24T15:03:20;2.85;;;1.00;;